Milaca, MN (56353)

10:59 AM CDT on July 06, 2015 (GMT -0500)
Milaca Airport (18Y) | | Change Station
CLOSE
Current Station
Personal Weather Station
Location: Milaca, MN
Elevation: 1083 ft
Nearby Weather Stations

Elev 1083 ft 45.77 °N, 93.63 °W | Updated 3 minutes ago

Overcast
Overcast
62.6 °F
Feels Like 62.6 °F
N
7.8
Wind Variable Wind from NNE

Today
High -- | Low -- °F
--% Chance of Precip.
Yesterday
High -- | Low -- °F
Precip. -- in
5:31 AM 9:06 PM
Waning Gibbous, 74% visible
Pressure 29.89 in
Visibility 5.0 miles
Clouds Overcast 4400 ft
Dew Point 61 °F
Humidity 96%
Rainfall 2.14 in
Snow Depth Not available.
UV 2 out of 12
Pollen .60 out of 12
Air Quality Not available.
Flu Activity Not available.
METAR KPNM 061554Z AUTO 33007KT 5SM -RA OVC044 18/16 A2989 RMK AO2 P0001

More Conditions Fewer Conditions

Pressure 29.89 in
Visibility 5.0 miles
Clouds Overcast 4400 ft
Dew Point 61 °F
Humidity 96%
Rainfall 2.14 in
Snow Depth Not available.
UV 2 out of 12
Pollen .60 out of 12
Air Quality Not available.
Flu Activity Not available.
METAR KPNM 061554Z AUTO 33007KT 5SM -RA OVC044 18/16 A2989 RMK AO2 P0001

More Conditions Fewer Conditions

10-Day Weather Forecast

×

Almanac

Astronomy

Jul. 06, 2015 Rise Set
Actual Time
Civil Twilight
Nautical Twilight
Astronomical Twilight
Moon
Length of Visible Light
Length of Day
Tomorrow will be .
, % of the Moon is Illuminated

Today's Extremes

State Highs State Lows

Community

WunderPhotos

Upload Photos

1,835,576 photos uploaded!

WunderBlogs® & News

Nearby

Air Quality

  Air Quality AQ Index Pollutant
Not available.

Snow Depth

Station Depth Elevation

Earthquake Activity

City Distance Mag. Time & Date
Minimum magnitude displayed is 2.5.

Coastal Water Temperatures

Place Temperature

Stations

Nearby Weather Stations

Station Location Temp. Windchill Dew Point Humidity Wind Precip. Elev Updated Type